createdAt,value
2023-04-26T00:02:04.788Z,9.01
2023-04-26T00:04:34.412Z,9.01
2023-04-26T00:07:04.195Z,9.03
2023-04-26T00:09:33.385Z,9.00
2023-04-26T00:12:03.011Z,9.00
2023-04-26T00:14:34.165Z,9.02
2023-04-26T00:17:04.560Z,9.00
2023-04-26T00:19:33.515Z,9.02
2023-04-26T00:22:03.104Z,9.00
2023-04-26T00:24:32.507Z,8.99
2023-04-26T00:27:01.840Z,8.98
2023-04-26T00:29:30.795Z,9.03
2023-04-26T00:32:01.222Z,8.99
2023-04-26T00:34:48.848Z,8.98
2023-04-26T00:37:21.618Z,8.97
2023-04-26T00:39:50.782Z,9.01
2023-04-26T00:42:20.927Z,8.98
2023-04-26T00:44:51.392Z,8.95
2023-04-26T00:47:39.965Z,8.99
2023-04-26T00:50:27.859Z,9.00
2023-04-26T00:52:57.295Z,8.99
2023-04-26T00:55:27.566Z,9.00
2023-04-26T00:58:15.360Z,9.00
2023-04-26T01:00:44.374Z,8.99
2023-04-26T01:03:15.334Z,8.98
2023-04-26T01:05:45.292Z,8.99
2023-04-26T01:08:17.327Z,8.99
2023-04-26T01:10:46.612Z,8.99
2023-04-26T01:13:16.290Z,9.02
2023-04-26T01:15:47.508Z,9.01
2023-04-26T01:18:36.129Z,8.99
2023-04-26T01:21:05.984Z,9.02
2023-04-26T01:23:55.223Z,9.02
2023-04-26T01:26:41.775Z,8.99
2023-04-26T01:29:29.339Z,8.97
2023-04-26T01:31:59.219Z,8.96
2023-04-26T01:34:30.852Z,9.00
2023-04-26T01:37:00.735Z,8.97
2023-04-26T01:39:32.338Z,8.98
2023-04-26T01:42:03.018Z,8.99
2023-04-26T01:44:34.724Z,8.99
2023-04-26T01:47:04.667Z,8.97
2023-04-26T01:49:33.873Z,8.99
2023-04-26T01:52:21.588Z,8.97
2023-04-26T01:54:52.563Z,9.00
2023-04-26T01:57:22.699Z,8.99
2023-04-26T01:59:51.672Z,9.00
2023-04-26T02:02:21.278Z,8.99
2023-04-26T02:04:50.286Z,9.00
2023-04-26T02:07:19.639Z,9.02
2023-04-26T02:09:48.906Z,8.98
2023-04-26T02:12:19.249Z,9.00
2023-04-26T02:14:48.288Z,9.03
2023-04-26T02:17:37.955Z,9.07
2023-04-26T02:20:10.548Z,9.07
2023-04-26T02:22:39.747Z,9.07
2023-04-26T02:25:09.869Z,9.05
2023-04-26T02:27:40.395Z,9.06
2023-04-26T02:30:10.298Z,9.08
2023-04-26T02:32:39.464Z,9.10
2023-04-26T02:35:09.341Z,9.09
2023-04-26T02:37:38.577Z,9.08
2023-04-26T02:40:11.036Z,9.13
2023-04-26T02:42:41.962Z,9.11
2023-04-26T02:45:11.823Z,9.12
2023-04-26T02:47:41.269Z,9.14
2023-04-26T02:50:11.350Z,9.12
2023-04-26T02:52:40.935Z,9.15
2023-04-26T02:55:10.824Z,9.16
2023-04-26T02:57:41.165Z,9.17
2023-04-26T03:00:11.298Z,9.19
2023-04-26T03:02:40.399Z,9.21
2023-04-26T03:05:10.804Z,9.19
2023-04-26T03:07:40.016Z,9.23
2023-04-26T03:10:10.009Z,9.29
2023-04-26T03:12:39.749Z,9.28
2023-04-26T03:15:11.091Z,9.32
2023-04-26T03:17:43.377Z,9.38
2023-04-26T03:20:13.955Z,9.39
2023-04-26T03:22:43.389Z,9.39
2023-04-26T03:25:13.341Z,9.42
2023-04-26T03:27:42.404Z,9.44
2023-04-26T03:30:13.685Z,9.50
2023-04-26T03:32:44.697Z,9.53
2023-04-26T03:35:14.072Z,9.51
2023-04-26T03:37:43.591Z,9.51
2023-04-26T03:40:17.142Z,9.57
2023-04-26T03:42:47.879Z,9.63
2023-04-26T03:45:19.698Z,9.67
2023-04-26T03:47:48.764Z,9.66
2023-04-26T03:50:18.176Z,9.72
2023-04-26T03:52:48.608Z,9.72
2023-04-26T03:55:18.519Z,9.76
2023-04-26T03:57:49.728Z,9.87
2023-04-26T04:00:20.620Z,9.84
2023-04-26T04:02:50.974Z,9.87
2023-04-26T04:05:26.556Z,9.84
2023-04-26T04:07:56.673Z,9.86
2023-04-26T04:10:25.855Z,9.87
2023-04-26T04:12:55.033Z,9.91
2023-04-26T04:15:25.561Z,9.92
2023-04-26T04:17:56.222Z,9.95
2023-04-26T04:20:25.645Z,9.99
2023-04-26T04:22:57.909Z,10.05
2023-04-26T04:25:27.903Z,10.18
2023-04-26T04:28:02.170Z,10.19
2023-04-26T04:30:33.186Z,10.30
2023-04-26T04:33:03.833Z,10.27
2023-04-26T04:35:34.604Z,10.25
2023-04-26T04:38:07.137Z,10.32
2023-04-26T04:40:37.327Z,10.31
2023-04-26T04:43:06.779Z,10.26
2023-04-26T04:45:39.044Z,10.26
2023-04-26T04:48:09.359Z,10.33
2023-04-26T04:50:39.011Z,10.41
2023-04-26T04:53:09.152Z,10.42
2023-04-26T04:55:39.478Z,10.48
2023-04-26T04:58:08.468Z,10.46
2023-04-26T05:00:39.194Z,10.40
2023-04-26T05:03:37.420Z,10.43
2023-04-26T05:06:08.222Z,10.43
2023-04-26T05:08:37.667Z,10.55
2023-04-26T05:11:08.304Z,10.54
2023-04-26T05:13:37.280Z,10.59
2023-04-26T05:16:08.944Z,10.48
2023-04-26T05:18:39.157Z,10.49
2023-04-26T05:21:08.726Z,10.52
2023-04-26T05:23:37.980Z,10.53
2023-04-26T05:26:07.716Z,10.58
2023-04-26T05:29:06.415Z,10.59
2023-04-26T05:32:09.226Z,10.66
2023-04-26T05:34:52.140Z,10.68
2023-04-26T05:37:21.274Z,10.58
2023-04-26T05:39:51.084Z,10.58
2023-04-26T05:42:20.233Z,10.55
2023-04-26T05:44:49.283Z,10.68
2023-04-26T05:47:20.538Z,10.89
2023-04-26T05:49:49.668Z,10.67
2023-04-26T05:52:18.865Z,10.72
2023-04-26T05:54:50.463Z,10.68
2023-04-26T05:57:19.872Z,10.74
2023-04-26T05:59:49.621Z,10.83
2023-04-26T06:02:21.391Z,10.85
2023-04-26T06:04:51.824Z,10.91
2023-04-26T06:07:21.139Z,10.94
2023-04-26T06:09:50.346Z,11.08
2023-04-26T06:12:19.393Z,11.04
2023-04-26T06:14:49.296Z,10.97
2023-04-26T06:17:29.907Z,10.89
2023-04-26T06:19:59.084Z,10.87
2023-04-26T06:22:28.455Z,10.81
2023-04-26T06:24:57.498Z,10.81
2023-04-26T06:27:28.539Z,10.81
2023-04-26T06:29:57.901Z,10.84
2023-04-26T06:32:30.598Z,10.90
2023-04-26T06:35:00.408Z,10.90
2023-04-26T06:37:30.709Z,10.88
2023-04-26T06:39:59.880Z,10.90
2023-04-26T06:42:29.879Z,10.93
2023-04-26T06:45:22.345Z,11.01
2023-04-26T06:47:55.181Z,11.01
2023-04-26T06:50:26.610Z,11.00
2023-04-26T06:52:56.819Z,11.20
2023-04-26T06:55:26.031Z,11.28
2023-04-26T06:57:55.629Z,11.33
2023-04-26T07:00:24.961Z,11.32
2023-04-26T07:02:55.684Z,11.19
2023-04-26T07:05:25.501Z,11.16
2023-04-26T07:07:54.900Z,11.19
2023-04-26T07:10:24.215Z,11.12
2023-04-26T07:12:53.631Z,11.19
2023-04-26T07:15:22.866Z,11.09
2023-04-26T07:17:51.940Z,11.08
2023-04-26T07:20:24.285Z,11.00
2023-04-26T07:22:53.359Z,11.10
2023-04-26T07:25:22.551Z,11.08
2023-04-26T07:27:52.469Z,11.02
2023-04-26T07:30:22.552Z,10.94
2023-04-26T07:32:53.382Z,10.94
2023-04-26T07:35:26.746Z,10.97
2023-04-26T07:37:55.850Z,11.06
2023-04-26T07:40:26.373Z,10.93
2023-04-26T07:42:55.490Z,10.82
2023-04-26T07:45:25.208Z,10.77
2023-04-26T07:47:54.959Z,10.83
2023-04-26T07:50:25.997Z,10.74
2023-04-26T07:52:55.650Z,10.70
2023-04-26T07:55:25.366Z,10.79
2023-04-26T07:57:55.026Z,10.77
2023-04-26T08:00:25.055Z,10.90
2023-04-26T08:02:54.494Z,10.83
2023-04-26T08:05:27.982Z,10.83
2023-04-26T08:07:57.964Z,10.87
2023-04-26T08:10:27.229Z,10.94
2023-04-26T08:12:57.480Z,11.07
2023-04-26T08:15:26.671Z,11.14
2023-04-26T08:17:55.692Z,11.23
2023-04-26T08:20:26.132Z,11.30
2023-04-26T08:22:58.107Z,11.29
2023-04-26T08:25:27.773Z,11.40
2023-04-26T08:27:58.672Z,11.57
2023-04-26T08:30:27.775Z,11.61
2023-04-26T08:32:57.455Z,11.94
2023-04-26T08:35:28.221Z,12.31
2023-04-26T08:37:57.520Z,12.46
2023-04-26T08:40:26.837Z,12.65
2023-04-26T08:42:56.572Z,12.48
2023-04-26T08:45:26.596Z,12.46
2023-04-26T08:48:03.932Z,12.58
2023-04-26T08:50:38.058Z,13.00
2023-04-26T08:53:07.681Z,13.22
2023-04-26T08:55:37.907Z,13.35
2023-04-26T08:58:08.061Z,13.31
2023-04-26T09:00:37.639Z,13.01
2023-04-26T09:03:07.731Z,13.01
2023-04-26T09:05:44.207Z,13.11
2023-04-26T09:08:17.769Z,13.32
2023-04-26T09:10:47.537Z,13.10
2023-04-26T09:13:16.473Z,12.72
2023-04-26T09:15:49.463Z,12.62
2023-04-26T09:18:19.512Z,12.84
2023-04-26T09:21:03.954Z,12.82
2023-04-26T09:23:36.861Z,12.72
2023-04-26T09:26:20.178Z,12.44
2023-04-26T09:28:50.957Z,12.37
2023-04-26T09:31:39.531Z,12.64
2023-04-26T09:34:09.272Z,12.83
2023-04-26T09:36:53.881Z,12.96
2023-04-26T09:39:34.060Z,13.32
2023-04-26T09:42:04.613Z,13.60
2023-04-26T09:44:34.097Z,14.01
2023-04-26T09:47:05.650Z,14.02
2023-04-26T09:49:45.131Z,14.11
2023-04-26T09:52:16.854Z,13.88
2023-04-26T09:54:49.401Z,13.80
2023-04-26T09:57:20.535Z,14.05
2023-04-26T09:59:53.569Z,14.35
2023-04-26T10:02:26.486Z,14.42
2023-04-26T10:04:57.499Z,14.43
2023-04-26T10:07:28.310Z,13.95
2023-04-26T10:09:59.729Z,13.40
2023-04-26T10:12:30.350Z,13.01
2023-04-26T10:14:59.586Z,12.83
2023-04-26T10:17:29.680Z,12.90
2023-04-26T10:20:01.394Z,13.20
2023-04-26T10:22:41.285Z,13.38
2023-04-26T10:25:11.431Z,13.35
2023-04-26T10:27:53.447Z,13.54
2023-04-26T10:30:24.477Z,14.07
2023-04-26T10:33:17.867Z,14.45
2023-04-26T10:36:08.012Z,15.05
2023-04-26T10:38:41.217Z,14.76
2023-04-26T10:41:30.472Z,14.72
2023-04-26T10:44:01.766Z,14.79
2023-04-26T10:46:41.494Z,14.99
2023-04-26T10:49:17.537Z,15.03
2023-04-26T10:52:14.941Z,14.82
2023-04-26T10:54:50.931Z,15.04
2023-04-26T10:57:20.236Z,14.86
2023-04-26T11:00:21.272Z,14.41
2023-04-26T11:02:59.117Z,14.14
2023-04-26T11:05:43.017Z,13.85
2023-04-26T11:08:18.698Z,13.71
2023-04-26T11:10:53.379Z,13.69
2023-04-26T11:13:23.321Z,13.64
2023-04-26T11:16:01.022Z,14.07
2023-04-26T11:18:30.278Z,14.95
2023-04-26T11:21:00.205Z,14.80
2023-04-26T11:23:31.689Z,14.50
2023-04-26T11:26:04.080Z,14.34
2023-04-26T11:28:34.760Z,14.44
2023-04-26T11:31:04.742Z,14.24
2023-04-26T11:33:34.750Z,14.08
2023-04-26T11:36:04.449Z,14.32
2023-04-26T11:38:33.438Z,14.85
2023-04-26T11:41:05.149Z,15.35
2023-04-26T11:43:38.096Z,15.45
2023-04-26T11:46:09.447Z,15.11
2023-04-26T11:48:39.866Z,14.87
2023-04-26T11:51:10.637Z,14.82
2023-04-26T11:53:41.177Z,14.85
2023-04-26T11:56:18.334Z,14.80
2023-04-26T11:58:49.253Z,14.65
2023-04-26T12:01:25.625Z,14.99
2023-04-26T12:03:56.495Z,14.74
2023-04-26T12:06:34.950Z,14.81
2023-04-26T12:09:07.009Z,14.74
2023-04-26T12:11:38.284Z,14.59
2023-04-26T12:14:10.039Z,14.35
2023-04-26T12:16:39.577Z,13.98
2023-04-26T12:19:11.370Z,13.90
2023-04-26T12:21:44.380Z,13.69
2023-04-26T12:24:26.683Z,13.88
2023-04-26T12:27:00.413Z,14.45
2023-04-26T12:29:32.158Z,14.96
2023-04-26T12:32:02.243Z,15.22
2023-04-26T12:34:31.581Z,15.52
2023-04-26T12:37:00.601Z,15.62
2023-04-26T12:39:29.907Z,15.77
2023-04-26T12:42:00.527Z,15.91
2023-04-26T12:44:29.653Z,15.93
2023-04-26T12:46:59.040Z,16.03
2023-04-26T12:49:29.754Z,15.73
2023-04-26T12:51:58.842Z,15.84
2023-04-26T12:54:27.943Z,16.14
2023-04-26T12:56:57.004Z,16.14
2023-04-26T12:59:27.583Z,16.01
2023-04-26T13:01:56.769Z,15.52
2023-04-26T13:04:26.247Z,15.15
2023-04-26T13:06:55.511Z,14.96
2023-04-26T13:09:24.514Z,14.51
2023-04-26T13:11:53.675Z,14.17
2023-04-26T13:14:23.402Z,14.01
2023-04-26T13:16:55.050Z,13.90
2023-04-26T13:19:24.238Z,13.70
2023-04-26T13:21:53.751Z,13.18
2023-04-26T13:24:23.538Z,12.70
2023-04-26T13:26:52.937Z,12.72
2023-04-26T13:29:22.869Z,12.63
2023-04-26T13:31:54.034Z,12.50
2023-04-26T13:34:23.896Z,12.64
2023-04-26T13:36:53.705Z,12.76
2023-04-26T13:39:22.821Z,12.94
2023-04-26T13:41:52.443Z,13.07
2023-04-26T13:44:21.743Z,13.22
2023-04-26T13:46:50.882Z,13.23
2023-04-26T13:49:22.354Z,13.34
2023-04-26T13:51:51.407Z,13.40
2023-04-26T13:54:23.293Z,13.35
2023-04-26T13:56:52.450Z,13.47
2023-04-26T13:59:23.089Z,13.72
2023-04-26T14:01:55.153Z,13.94
2023-04-26T14:04:27.538Z,13.81
2023-04-26T14:06:57.340Z,13.69
2023-04-26T14:09:26.866Z,13.62
2023-04-26T14:12:07.355Z,13.66
2023-04-26T14:14:38.257Z,13.74
2023-04-26T14:17:07.850Z,13.87
2023-04-26T14:19:38.422Z,13.98
2023-04-26T14:22:07.684Z,14.10
2023-04-26T14:24:39.407Z,14.17
2023-04-26T14:27:11.766Z,14.26
2023-04-26T14:29:40.916Z,14.39
2023-04-26T14:32:10.000Z,14.46
2023-04-26T14:34:40.568Z,14.62
2023-04-26T14:37:10.896Z,14.83
2023-04-26T14:39:40.016Z,15.12
2023-04-26T14:42:09.250Z,15.20
2023-04-26T14:44:38.322Z,15.36
2023-04-26T14:47:07.360Z,15.33
2023-04-26T14:49:36.502Z,15.34
2023-04-26T14:52:07.112Z,15.38
2023-04-26T14:54:39.401Z,15.38
2023-04-26T14:57:08.905Z,15.45
2023-04-26T14:59:38.698Z,15.46
2023-04-26T15:02:08.501Z,15.35
2023-04-26T15:04:38.438Z,15.32
2023-04-26T15:07:15.278Z,15.38
2023-04-26T15:09:49.959Z,15.40
2023-04-26T15:12:21.098Z,15.36
2023-04-26T15:14:50.341Z,15.47
2023-04-26T15:17:19.391Z,15.55
2023-04-26T15:19:48.477Z,15.56
2023-04-26T15:22:18.995Z,15.59
2023-04-26T15:24:49.730Z,15.59
2023-04-26T15:27:19.262Z,15.59
2023-04-26T15:29:48.249Z,15.64
2023-04-26T15:32:17.359Z,15.54
2023-04-26T15:34:46.578Z,15.39
2023-04-26T15:37:15.946Z,15.28
2023-04-26T15:39:46.788Z,15.20
2023-04-26T15:42:15.753Z,15.15
2023-04-26T15:44:44.732Z,15.12
2023-04-26T15:47:13.806Z,15.03
2023-04-26T15:49:42.955Z,14.98
2023-04-26T15:52:13.973Z,14.93
2023-04-26T15:54:43.037Z,14.85
2023-04-26T15:57:13.473Z,14.77
2023-04-26T15:59:42.620Z,14.65
2023-04-26T16:02:11.664Z,14.53
2023-04-26T16:04:40.993Z,14.29
2023-04-26T16:07:10.136Z,14.09
2023-04-26T16:09:39.318Z,13.97
2023-04-26T16:12:08.787Z,13.93
2023-04-26T16:14:39.066Z,13.85
2023-04-26T16:17:08.075Z,13.73
2023-04-26T16:19:37.553Z,13.62
2023-04-26T16:22:06.833Z,13.57
2023-04-26T16:24:36.046Z,13.50
2023-04-26T16:27:05.939Z,13.34
2023-04-26T16:29:34.930Z,13.32
2023-04-26T16:32:05.635Z,13.24
2023-04-26T16:34:34.656Z,13.06
2023-04-26T16:37:03.654Z,13.07
2023-04-26T16:39:32.751Z,13.12
2023-04-26T16:42:02.469Z,13.08
2023-04-26T16:44:31.694Z,12.96
2023-04-26T16:47:01.728Z,12.87
2023-04-26T16:49:32.162Z,12.85
2023-04-26T16:52:03.876Z,12.75
2023-04-26T16:54:33.104Z,12.66
2023-04-26T16:57:03.753Z,12.55
2023-04-26T16:59:32.852Z,12.57
2023-04-26T17:02:04.040Z,12.51
2023-04-26T17:04:34.977Z,12.45
2023-04-26T17:07:04.255Z,12.41
2023-04-26T17:09:33.311Z,12.40
2023-04-26T17:12:04.298Z,12.34
2023-04-26T17:14:33.781Z,12.23
2023-04-26T17:17:03.027Z,12.17
2023-04-26T17:19:32.503Z,12.09
2023-04-26T17:22:03.013Z,11.98
2023-04-26T17:24:32.075Z,11.93
2023-04-26T17:27:01.196Z,11.98
2023-04-26T17:29:30.292Z,12.00
2023-04-26T17:31:59.461Z,12.01
2023-04-26T17:34:28.489Z,11.88
2023-04-26T17:36:59.801Z,11.70
2023-04-26T17:39:30.161Z,11.59
2023-04-26T17:41:59.186Z,11.47
2023-04-26T17:44:28.393Z,11.41
2023-04-26T17:46:57.586Z,11.52
2023-04-26T17:49:26.950Z,11.45
2023-04-26T17:51:56.405Z,11.32
2023-04-26T17:54:25.661Z,11.31
2023-04-26T17:56:56.267Z,11.21
2023-04-26T17:59:27.132Z,11.12
2023-04-26T18:01:56.848Z,11.14
2023-04-26T18:04:26.316Z,11.08
2023-04-26T18:06:56.022Z,10.97
2023-04-26T18:09:25.409Z,10.98
2023-04-26T18:11:55.958Z,10.96
2023-04-26T18:14:26.665Z,10.93
2023-04-26T18:16:56.538Z,10.92
2023-04-26T18:19:25.881Z,11.03
2023-04-26T18:21:55.359Z,11.16
2023-04-26T18:24:24.338Z,11.23
2023-04-26T18:26:53.306Z,11.29
2023-04-26T18:29:28.327Z,11.34
2023-04-26T18:31:57.809Z,11.31
2023-04-26T18:34:27.108Z,11.34
2023-04-26T18:36:56.310Z,11.23
2023-04-26T18:39:25.277Z,11.13
2023-04-26T18:41:55.279Z,11.04
2023-04-26T18:44:25.790Z,10.97
2023-04-26T18:46:55.982Z,10.90
2023-04-26T18:49:26.962Z,10.86
2023-04-26T18:51:57.470Z,10.88
2023-04-26T18:54:26.870Z,10.93
2023-04-26T18:56:58.188Z,10.94
2023-04-26T18:59:28.857Z,10.86
2023-04-26T19:01:58.910Z,10.78
2023-04-26T19:04:28.229Z,10.70
2023-04-26T19:06:58.031Z,10.62
2023-04-26T19:09:27.088Z,10.62
2023-04-26T19:11:56.290Z,10.66
2023-04-26T19:14:25.272Z,10.60
2023-04-26T19:16:56.441Z,10.57
2023-04-26T19:19:25.786Z,10.55
2023-04-26T19:21:54.953Z,10.54
2023-04-26T19:24:24.030Z,10.51
2023-04-26T19:26:53.068Z,10.55
2023-04-26T19:29:22.062Z,10.60
2023-04-26T19:31:51.151Z,10.58
2023-04-26T19:34:21.683Z,10.66
2023-04-26T19:36:50.604Z,10.72
2023-04-26T19:39:21.940Z,10.68
2023-04-26T19:41:52.663Z,10.66
2023-04-26T19:44:22.356Z,10.78
2023-04-26T19:46:52.014Z,10.84
2023-04-26T19:49:28.495Z,10.83
2023-04-26T19:51:58.261Z,10.76
2023-04-26T19:54:27.387Z,10.66
2023-04-26T19:56:56.808Z,10.53
2023-04-26T19:59:25.921Z,10.39
2023-04-26T20:01:54.924Z,10.36
2023-04-26T20:04:25.401Z,10.29
2023-04-26T20:06:54.646Z,10.30
2023-04-26T20:09:23.739Z,10.35
2023-04-26T20:11:52.986Z,10.32
2023-04-26T20:14:22.086Z,10.28
2023-04-26T20:16:51.902Z,10.24
2023-04-26T20:19:20.999Z,10.26
2023-04-26T20:21:51.482Z,10.25
2023-04-26T20:24:22.247Z,10.17
2023-04-26T20:26:51.790Z,10.18
2023-04-26T20:29:20.824Z,10.15
2023-04-26T20:31:51.924Z,10.05
2023-04-26T20:34:21.044Z,10.04
2023-04-26T20:36:51.597Z,9.98
2023-04-26T20:39:22.909Z,9.92
2023-04-26T20:41:52.270Z,9.91
2023-04-26T20:44:21.509Z,9.85
2023-04-26T20:46:50.874Z,9.83
2023-04-26T20:49:20.130Z,9.77
2023-04-26T20:51:52.658Z,9.81
2023-04-26T20:54:22.311Z,9.73
2023-04-26T20:56:51.499Z,9.70
2023-04-26T20:59:20.722Z,9.69
2023-04-26T21:01:49.952Z,9.79
2023-04-26T21:04:19.401Z,9.88
2023-04-26T21:06:48.741Z,9.77
2023-04-26T21:09:19.215Z,9.71
2023-04-26T21:11:48.542Z,9.66
2023-04-26T21:14:17.800Z,9.59
2023-04-26T21:16:46.930Z,9.53
2023-04-26T21:19:15.935Z,9.59
2023-04-26T21:21:45.066Z,9.56
2023-04-26T21:24:14.464Z,9.53
2023-04-26T21:26:44.839Z,9.60
2023-04-26T21:29:13.855Z,9.68
2023-04-26T21:31:42.977Z,9.71
2023-04-26T21:34:12.054Z,9.71
2023-04-26T21:36:41.062Z,9.67
2023-04-26T21:39:10.658Z,9.69
2023-04-26T21:41:40.087Z,9.62
2023-04-26T21:44:11.349Z,9.44
2023-04-26T21:46:40.392Z,9.24
2023-04-26T21:49:10.485Z,9.07
2023-04-26T21:51:39.878Z,8.86
2023-04-26T21:54:09.463Z,8.70
2023-04-26T21:56:38.707Z,8.59
2023-04-26T21:59:10.842Z,8.48
2023-04-26T22:01:42.112Z,8.41
2023-04-26T22:04:11.228Z,8.37
2023-04-26T22:06:40.571Z,8.27
2023-04-26T22:09:10.405Z,8.17
2023-04-26T22:11:39.817Z,8.09
2023-04-26T22:14:08.754Z,7.99
2023-04-26T22:16:37.832Z,7.86
2023-04-26T22:19:08.807Z,7.86
2023-04-26T22:21:38.088Z,7.92
2023-04-26T22:24:07.708Z,7.99
2023-04-26T22:26:36.629Z,8.01
2023-04-26T22:29:05.714Z,8.03
2023-04-26T22:31:34.770Z,8.00
2023-04-26T22:34:03.872Z,7.93
2023-04-26T22:36:34.914Z,7.95
2023-04-26T22:39:03.896Z,7.90
2023-04-26T22:41:33.501Z,7.90
2023-04-26T22:44:02.444Z,7.85
2023-04-26T22:46:31.545Z,7.76
2023-04-26T22:49:00.892Z,7.79
2023-04-26T22:51:30.040Z,7.78
2023-04-26T22:54:00.428Z,7.80
2023-04-26T22:56:29.420Z,7.75
2023-04-26T22:58:58.385Z,7.63
2023-04-26T23:01:27.371Z,7.49
2023-04-26T23:03:56.360Z,7.39
2023-04-26T23:06:25.274Z,7.24
2023-04-26T23:08:54.455Z,7.16
2023-04-26T23:11:25.007Z,7.13
2023-04-26T23:13:54.842Z,7.22
2023-04-26T23:16:23.852Z,7.26
2023-04-26T23:18:52.792Z,7.26
2023-04-26T23:21:22.002Z,7.19
2023-04-26T23:23:51.003Z,7.04
2023-04-26T23:26:19.911Z,6.91
2023-04-26T23:28:50.279Z,6.88
2023-04-26T23:31:19.253Z,6.74
2023-04-26T23:33:48.286Z,6.66
2023-04-26T23:36:17.384Z,6.69
2023-04-26T23:38:46.360Z,6.74
2023-04-26T23:41:15.394Z,6.76
2023-04-26T23:43:44.315Z,6.81
2023-04-26T23:46:14.663Z,6.79
2023-04-26T23:48:43.775Z,6.77
2023-04-26T23:51:12.818Z,6.85
2023-04-26T23:53:41.736Z,6.78
2023-04-26T23:56:10.780Z,6.74
2023-04-26T23:58:39.841Z,6.77
